Flight Track Log - Related Links

Times and Time Zones

All times are in EST time to prevent confusion due to time zone crossing. See the MBT2 flight status page for this flight to view local times or setup timezone preferences in your user account.

Time Position Orientation Groundspeed Altitude Reporting Facility
EST Latitude Longitude Course Direction KTS MPH feet Rate Location/Type
Wed 09:57:27 PM 53.2667 -113.6000 130° Southeast 60 69 2,700  Level Edmonton Center
Wed 09:58:27 PM 53.2333 -113.5333 130° Southeast 190 219 5,300 2,900 Climbing Edmonton Center
Wed 09:59:27 PM 53.2167 -113.4500 108° East 210 242 8,500 3,000 Climbing Edmonton Center
Wed 10:00:27 PM 53.2167 -113.3333 90° East 270 311 11,300 3,500 Climbing Edmonton Center
Wed 10:01:27 PM 53.2000 -113.2000 102° East 280 322 15,500 3,600 Climbing Edmonton Center
Wed 10:02:27 PM 53.1833 -113.0833 103° East 250 288 18,500 2,650 Climbing Edmonton Center
Wed 10:03:27 PM 53.1667 -112.9667 103° East 260 299 20,800 2,050 Climbing Edmonton Center
Wed 10:04:27 PM 53.1500 -112.8500 103° East 290 334 22,600 2,150 Climbing Edmonton Center
Wed 10:05:27 PM 53.1333 -112.7000 100° East 290 334 25,100 1,900 Climbing Edmonton Center
Wed 10:06:27 PM 53.1167 -112.5500 100° East 300 345 26,400 1,500 Climbing Edmonton Center
Wed 10:07:27 PM 53.0833 -112.4333 115° Southeast 310 357 28,100 1,600 Climbing Edmonton Center
Wed 10:08:27 PM 53.0833 -112.2667 90° East 310 357 29,600 1,300 Climbing Edmonton Center
Wed 10:09:27 PM 53.0500 -112.1500 115° Southeast 320 368 30,700 1,150 Climbing Edmonton Center
Wed 10:10:27 PM 53.0333 -111.9667 99° East 320 368 31,900 1,100 Climbing Edmonton Center
Wed 10:11:27 PM 53.0000 -111.8333 113° Southeast 330 380 32,900 550 Climbing Edmonton Center
Wed 10:12:27 PM 53.0000 -111.6500 90° East 340 391 33,000 50 Climbing Edmonton Center
Wed 10:13:27 PM 52.9833 -111.5167 102° East 360 414 33,000  Level Edmonton Center
Wed 10:14:27 PM 52.9500 -111.3333 107° East 380 437 33,000  Level Edmonton Center
Wed 10:15:27 PM 52.9167 -111.1667 108° East 380 437 33,000  Level Edmonton Center
Wed 10:16:27 PM 52.8833 -111.0000 108° East 380 437 33,000  Level Edmonton Center
Wed 10:17:27 PM 52.8667 -110.8000 98° East 390 449 33,000  Level Edmonton Center
Wed 10:18:27 PM 52.8333 -110.6500 110° East 390 449 33,000  Level Edmonton Center
Wed 10:19:27 PM 52.8167 -110.4500 98° East 390 449 33,000  Level Edmonton Center
Wed 10:20:27 PM 52.7833 -110.2833 108° East 390 449 33,000  Level Edmonton Center
Wed 10:21:27 PM 52.7667 -110.1000 98° East 390 449 33,000  Level Edmonton Center
Wed 10:22:27 PM 52.7333 -109.9333 108° East 390 449 33,000  Level Edmonton Center
Wed 10:23:27 PM 52.7000 -109.7667 108° East 390 449 33,000  Level Edmonton Center
Wed 10:24:27 PM 52.6833 -109.5667 98° East 390 449 33,000  Level Edmonton Center
Wed 10:25:27 PM 52.6500 -109.4000 108° East 390 449 33,000  Level Edmonton Center
Wed 10:26:27 PM 52.6167 -109.2167 107° East 390 449 33,000  Level Edmonton Center
Wed 10:27:27 PM 52.5833 -109.0500 108° East 390 449 33,000  Level Edmonton Center
Wed 10:28:27 PM 52.5500 -108.8500 105° East 400 460 33,000  Level Edmonton Center
Wed 10:29:27 PM 52.5333 -108.6833 99° East 400 460 33,000  Level Edmonton Center
Wed 10:30:27 PM 52.5000 -108.5167 108° East 400 460 33,000  Level Edmonton Center
Wed 10:31:27 PM 52.4667 -108.3500 108° East 400 460 33,000  Level Edmonton Center
Wed 10:32:27 PM 52.4500 -108.1500 98° East 400 460 33,000  Level Edmonton Center
Wed 10:33:27 PM 52.4000 -107.9833 116° Southeast 400 460 33,000  Level Edmonton Center
Wed 10:34:27 PM 52.3667 -107.8167 108° East 400 460 33,000  Level Edmonton Center
Wed 10:35:27 PM 52.3333 -107.6500 108° East 400 460 33,000  Level Edmonton Center
Wed 10:36:27 PM 52.3000 -107.4500 105° East 400 460 33,000  Level Edmonton Center
Wed 10:37:27 PM 52.2833 -107.2833 99° East 400 460 33,000  Level Edmonton Center
Wed 10:38:27 PM 52.2500 -107.1167 108° East 400 460 33,000  Level Edmonton Center
Wed 10:39:27 PM 52.2167 -106.9167 105° East 400 460 33,000  Level Edmonton Center
Wed 10:40:27 PM 52.1833 -106.7500 108° East 390 449 33,000  Level Edmonton Center
Wed 10:41:27 PM 52.1333 -106.5833 116° Southeast 390 449 33,000  Level Edmonton Center
Wed 10:42:27 PM 52.1000 -106.4167 108° East 400 460 33,000  Level Edmonton Center
Wed 10:43:27 PM 52.0667 -106.2333 106° East 410 472 33,000  Level Edmonton Center
Wed 10:44:27 PM 52.0500 -106.0667 99° East 400 460 33,000  Level Edmonton Center
Wed 10:45:27 PM 52.0167 -105.9000 108° East 400 460 33,000  Level Edmonton Center
Wed 10:46:27 PM 51.9833 -105.7000 105° East 400 460 33,000  Level Edmonton Center
Wed 10:47:27 PM 51.9500 -105.5333 108° East 400 460 33,000  Level Edmonton Center
Wed 10:48:27 PM 51.9000 -105.3500 114° Southeast 400 460 33,000  Level Edmonton Center
Wed 10:49:27 PM 51.8667 -105.1833 108° East 400 460 33,000  Level Edmonton Center
Wed 10:50:27 PM 51.8333 -105.0167 108° East 400 460 33,000  Level Edmonton Center
Wed 10:51:27 PM 51.8000 -104.8333 106° East 400 460 33,000  Level Edmonton Center
Wed 10:52:27 PM 51.7667 -104.6667 108° East 400 460 33,000  Level Edmonton Center
Wed 10:53:27 PM 51.7333 -104.4667 105° East 400 460 33,000  Level Edmonton Center
Wed 10:54:27 PM 51.6833 -104.3167 118° Southeast 410 472 33,000  Level Edmonton Center
Wed 10:55:27 PM 51.6500 -104.1500 108° East 410 472 33,000  Level Edmonton Center
Wed 10:56:27 PM 51.6000 -103.9667 114° Southeast 410 472 33,000  Level Edmonton Center
Wed 10:57:27 PM 51.5667 -103.8000 108° East 410 472 33,000  Level Edmonton Center
Wed 10:58:27 PM 51.5333 -103.6000 105° East 410 472 33,000  Level Edmonton Center
Wed 10:59:33 PM 51.5000 -103.4500 110° East 410 472 33,000  Level Winnipeg Center
Wed 11:00:33 PM 51.4667 -103.2833 108° East 410 472 33,000  Level Winnipeg Center
Wed 11:01:33 PM 51.4167 -103.1167 116° Southeast 410 472 33,000  Level Winnipeg Center
Wed 11:02:33 PM 51.3833 -102.9500 108° East 410 472 33,000  Level Winnipeg Center
Wed 11:03:33 PM 51.3333 -102.7833 116° Southeast 410 472 33,000  Level Winnipeg Center
Wed 11:04:33 PM 51.3000 -102.5833 105° East 410 472 33,000  Level Winnipeg Center
Wed 11:05:33 PM 51.2500 -102.4167 116° Southeast 410 472 33,000  Level Winnipeg Center
Wed 11:06:33 PM 51.2333 -102.2667 100° East 410 472 33,000  Level Winnipeg Center
Wed 11:07:33 PM 51.1833 -102.0667 112° Southeast 410 472 33,000  Level Winnipeg Center
Wed 11:08:33 PM 51.1500 -101.9000 108° East 410 472 33,000  Level Winnipeg Center
Wed 11:09:33 PM 51.1000 -101.7333 115° Southeast 410 472 33,000  Level Winnipeg Center
Wed 11:10:33 PM 51.0667 -101.5667 108° East 410 472 33,000  Level Winnipeg Center
Wed 11:11:33 PM 51.0167 -101.4167 118° Southeast 420 483 33,000  Level Winnipeg Center
Wed 11:12:33 PM 50.9667 -101.2167 112° Southeast 410 472 33,000  Level Winnipeg Center
Wed 11:13:33 PM 50.9333 -101.0500 108° East 410 472 33,000  Level Winnipeg Center
Wed 11:14:33 PM 50.8833 -100.9000 118° Southeast 420 483 33,000  Level Winnipeg Center
Wed 11:15:33 PM 50.8333 -100.7000 112° Southeast 420 483 33,000  Level Winnipeg Center
Wed 11:16:33 PM 50.8167 -100.5500 100° East 420 483 33,000  Level Winnipeg Center
Wed 11:17:33 PM 50.7667 -100.3833 115° Southeast 420 483 33,000  Level Winnipeg Center
Wed 11:18:33 PM 50.7167 -100.2167 115° Southeast 410 472 33,000  Level Winnipeg Center
Wed 11:19:33 PM 50.6833 -100.0333 106° East 410 472 33,000  Level Winnipeg Center
Wed 11:20:33 PM 50.6333 -99.8667 115° Southeast 410 472 33,000  Level Winnipeg Center
Wed 11:21:33 PM 50.5833 -99.7000 115° Southeast 410 472 33,000  Level Winnipeg Center
Wed 11:22:33 PM 50.5333 -99.5167 113° Southeast 410 472 33,000 -150 Level Winnipeg Center
Wed 11:23:33 PM 50.4833 -99.3667 118° Southeast 410 472 32,700 -1,000 Descending Winnipeg Center
Wed 11:24:33 PM 50.4667 -99.2000 99° East 410 472 31,000 -2,000 Descending Winnipeg Center
Wed 11:25:33 PM 50.4167 -99.0333 115° Southeast 390 449 28,700 -2,350 Descending Winnipeg Center
Wed 11:26:33 PM 50.3833 -98.8833 109° East 380 437 26,300 -2,350 Descending Winnipeg Center
Wed 11:27:33 PM 50.3333 -98.7500 120° Southeast 370 426 24,000 -2,400 Descending Winnipeg Center
Wed 11:28:33 PM 50.3000 -98.5833 107° East 350 403 21,500 -2,400 Descending Winnipeg Center
Wed 11:29:33 PM 50.2667 -98.4500 111° Southeast 340 391 19,200 -2,250 Descending Winnipeg Center
Wed 11:30:33 PM 50.2333 -98.3333 114° Southeast 330 380 17,000 -2,200 Descending Winnipeg Center
Wed 11:31:33 PM 50.2000 -98.2000 111° Southeast 330 380 14,800 -2,250 Descending Winnipeg Center
Wed 11:32:33 PM 50.1833 -98.0667 101° East 320 368 12,500 -2,150 Descending Winnipeg Center
Wed 11:33:33 PM 50.1500 -97.9333 111° Southeast 310 357 10,500 -1,900 Descending Winnipeg Center
Wed 11:34:33 PM 50.1167 -97.8333 117° Southeast 300 345 8,700 -1,700 Descending Winnipeg Center
Wed 11:35:33 PM 50.0833 -97.7000 111° Southeast 280 322 7,100 -1,400 Descending Winnipeg Center
Wed 11:36:33 PM 50.0500 -97.5833 114° Southeast 270 311 5,900 -1,250 Descending Winnipeg Center
Wed 11:37:33 PM 50.0333 -97.4833 105° East 260 299 4,600 -1,300 Descending Winnipeg Center
Wed 11:38:33 PM 50.0000 -97.3833 117° Southeast 230 265 3,300 -1,050 Descending Winnipeg Center
Wed 11:39:33 PM 49.9667 -97.3333 136° Southeast 200 230 2,500 -900 Descending Winnipeg Center
Wed 11:40:33 PM 49.9167 -97.2833 147° Southeast 140 161 1,500 -900 Descending Winnipeg Center
Wed 11:41:33 PM 49.9000 -97.2500 128° Southeast 110 127 700 -800 Descending Winnipeg Center

Login

Don't have an account? Register now (free) for customized features, flight alerts, and more!